Terminal Aerodrome Forecast
Issued by NWS Northern Indiana

Home | Current Version | Previous Version | Graphics & Text | Print | Product List | Glossary On
Versions: 1 2 3 4 5 6 7 8 9 10 11 12 13 14
326
FTUS43 KIWX 230531
TAFFWA
TAF
KFWA 230531Z 2306/2406 00000KT P6SM FEW060
     FM230900 00000KT 5SM BR SCT010
     FM231500 24006KT P6SM VCTS BKN040CB
     FM231800 29008KT P6SM BKN050=

USA.gov is the U.S. government's official web portal to all federal, state and local government web resources and services.